createdAt,value
2022-09-11T00:01:00.036Z,98060.16
2022-09-11T00:06:03.837Z,98063.81
2022-09-11T00:08:31.945Z,98060.28
2022-09-11T00:11:13.651Z,98056.66
2022-09-11T00:13:40.366Z,98050.50
2022-09-11T00:16:17.915Z,98046.97
2022-09-11T00:18:44.617Z,98048.66
2022-09-11T00:21:11.149Z,98046.00
2022-09-11T00:23:37.722Z,98046.00
2022-09-11T00:26:04.956Z,98045.00
2022-09-11T00:28:31.969Z,98029.47
2022-09-11T00:30:59.615Z,98038.84
2022-09-11T00:33:27.468Z,98013.47
2022-09-11T00:35:57.015Z,98040.53
2022-09-11T00:38:24.373Z,98039.69
2022-09-11T00:40:51.842Z,98032.53
2022-09-11T00:43:18.560Z,98040.53
2022-09-11T00:45:50.079Z,98035.22
2022-09-11T00:48:21.905Z,98036.03
2022-09-11T00:50:50.304Z,98039.50
2022-09-11T00:53:19.172Z,98036.84
2022-09-11T00:55:51.488Z,98036.84
2022-09-11T00:58:23.733Z,98036.84
2022-09-11T01:00:52.227Z,98040.38
2022-09-11T01:03:19.448Z,98042.06
2022-09-11T01:05:48.222Z,98033.00
2022-09-11T01:08:15.107Z,98041.03
2022-09-11T01:10:47.619Z,98042.06
2022-09-11T01:13:24.243Z,98040.22
2022-09-11T01:16:10.822Z,98035.88
2022-09-11T01:18:41.149Z,98036.72
2022-09-11T01:21:17.005Z,98033.22
2022-09-11T01:24:21.413Z,98036.72
2022-09-11T01:27:02.835Z,98033.38
2022-09-11T01:29:39.274Z,98034.19
2022-09-11T01:32:31.155Z,98025.22
2022-09-11T01:35:04.373Z,98031.41
2022-09-11T01:37:40.593Z,98032.22
2022-09-11T01:40:18.829Z,98031.41
2022-09-11T01:42:49.685Z,98020.75
2022-09-11T01:45:17.078Z,98023.41
2022-09-11T01:47:46.416Z,98031.41
2022-09-11T01:50:16.974Z,98006.50
2022-09-11T01:52:50.573Z,98021.41
2022-09-11T01:55:25.000Z,98024.56
2022-09-11T01:57:56.440Z,98025.06
2022-09-11T02:00:24.016Z,98016.25
2022-09-11T02:02:59.477Z,98019.72
2022-09-11T02:05:33.541Z,98022.25
2022-09-11T02:08:11.859Z,98014.41
2022-09-11T02:10:45.332Z,97995.72
2022-09-11T02:13:14.502Z,98007.28
2022-09-11T02:15:49.519Z,98000.28
2022-09-11T02:18:28.835Z,97996.91
2022-09-11T02:23:21.262Z,98002.09
2022-09-11T02:25:48.540Z,98002.09
2022-09-11T02:28:15.619Z,97996.78
2022-09-11T02:30:43.910Z,97990.22
2022-09-11T02:33:47.419Z,97993.25
2022-09-11T02:36:32.268Z,98003.91
2022-09-11T02:39:17.143Z,97996.78
2022-09-11T02:42:18.825Z,97999.56
2022-09-11T02:44:59.364Z,97995.25
2022-09-11T02:48:07.428Z,97994.41
2022-09-11T02:51:17.737Z,97995.25
2022-09-11T02:54:03.251Z,97990.94
2022-09-11T02:56:51.087Z,97989.09
2022-09-11T02:59:24.403Z,97998.91
2022-09-11T03:01:55.219Z,97994.41
2022-09-11T03:06:38.444Z,97998.75
2022-09-11T03:09:07.384Z,97996.91
2022-09-11T03:13:53.536Z,97995.25
2022-09-11T03:16:20.525Z,97998.91
2022-09-11T03:18:47.378Z,97997.06
2022-09-11T03:21:14.320Z,97997.06
2022-09-11T03:23:40.968Z,97997.06
2022-09-11T03:26:07.877Z,97997.06
2022-09-11T03:28:34.556Z,97998.91
2022-09-11T03:31:07.774Z,98001.56
2022-09-11T03:33:35.106Z,98002.41
2022-09-11T03:36:01.799Z,97992.72
2022-09-11T03:38:28.352Z,97992.72
2022-09-11T03:40:55.140Z,97990.94
2022-09-11T03:43:21.952Z,97993.59
2022-09-11T03:45:50.166Z,98003.38
2022-09-11T03:48:16.795Z,97999.91
2022-09-11T03:50:45.411Z,97999.03
2022-09-11T03:53:12.904Z,97996.38
2022-09-11T03:55:40.232Z,98001.72
2022-09-11T03:58:07.525Z,97998.22
2022-09-11T04:00:41.909Z,97998.22
2022-09-11T04:03:08.785Z,98002.72
2022-09-11T04:05:43.940Z,97994.22
2022-09-11T04:08:13.941Z,98007.19
2022-09-11T04:10:43.628Z,98003.00
2022-09-11T04:13:10.936Z,98014.34
2022-09-11T04:15:37.544Z,98007.19
2022-09-11T04:18:08.284Z,98007.34
2022-09-11T04:20:39.605Z,98014.50
2022-09-11T04:25:19.009Z,98014.50
2022-09-11T04:27:45.595Z,98011.81
2022-09-11T04:30:15.460Z,98005.69
2022-09-11T04:32:42.083Z,98015.50
2022-09-11T04:35:08.963Z,98000.34
2022-09-11T04:37:42.440Z,98007.53
2022-09-11T04:40:09.943Z,98024.31
2022-09-11T04:42:36.683Z,98016.31
2022-09-11T04:45:04.606Z,98013.28
2022-09-11T04:47:32.390Z,98017.16
2022-09-11T04:49:58.946Z,98014.50
2022-09-11T04:52:25.700Z,97949.41
2022-09-11T04:54:52.361Z,98019.81
2022-09-11T04:57:19.203Z,98014.50
2022-09-11T04:59:46.087Z,98010.03
2022-09-11T05:02:13.051Z,98005.69
2022-09-11T05:04:42.906Z,98005.69
2022-09-11T05:07:13.437Z,98010.03
2022-09-11T05:09:42.440Z,98010.03
2022-09-11T05:12:10.586Z,98007.34
2022-09-11T05:14:37.888Z,98032.16
2022-09-11T05:17:04.613Z,98010.03
2022-09-11T05:19:35.441Z,98007.19
2022-09-11T05:22:02.028Z,98001.88
2022-09-11T05:24:29.907Z,98005.38
2022-09-11T05:26:58.867Z,97995.72
2022-09-11T05:29:32.191Z,98009.84
2022-09-11T05:32:08.060Z,98006.22
2022-09-11T05:34:34.923Z,98008.88
2022-09-11T05:37:02.228Z,98008.06
2022-09-11T05:39:32.031Z,98005.38
2022-09-11T05:42:00.945Z,98008.06
2022-09-11T05:44:31.680Z,98008.06
2022-09-11T05:46:58.725Z,98009.69
2022-09-11T05:49:25.700Z,98004.38
2022-09-11T05:51:52.359Z,98007.03
2022-09-11T05:54:19.044Z,98008.88
2022-09-11T05:56:45.908Z,98012.34
2022-09-11T05:59:20.526Z,98017.56
2022-09-11T06:01:49.742Z,98008.72
2022-09-11T06:04:24.957Z,98013.91
2022-09-11T06:06:52.617Z,98014.03
2022-09-11T06:11:31.460Z,98017.38
2022-09-11T06:16:18.305Z,98014.56
2022-09-11T06:18:50.475Z,98015.44
2022-09-11T06:21:22.576Z,98016.09
2022-09-11T06:24:18.596Z,98016.78
2022-09-11T06:26:46.608Z,98019.28
2022-09-11T06:29:16.902Z,98023.63
2022-09-11T06:31:49.157Z,98016.44
2022-09-11T06:34:18.213Z,98009.31
2022-09-11T06:36:47.616Z,98007.47
2022-09-11T06:39:20.514Z,98015.63
2022-09-11T06:41:47.309Z,98012.16
2022-09-11T06:44:15.949Z,97986.88
2022-09-11T06:46:42.919Z,98012.97
2022-09-11T06:49:11.757Z,98011.81
2022-09-11T06:51:59.355Z,98013.50
2022-09-11T06:54:26.171Z,98014.19
2022-09-11T06:56:54.059Z,98015.84
2022-09-11T06:59:23.790Z,98013.16
2022-09-11T07:01:51.663Z,98008.88
2022-09-11T07:04:18.887Z,98008.88
2022-09-11T07:06:48.036Z,98001.50
2022-09-11T07:09:15.855Z,98016.00
2022-09-11T07:11:48.557Z,98010.66
2022-09-11T07:14:21.298Z,98015.00
2022-09-11T07:16:55.285Z,98012.50
2022-09-11T07:19:25.603Z,98014.31
2022-09-11T07:21:52.132Z,98017.84
2022-09-11T07:24:20.633Z,98015.84
2022-09-11T07:26:48.175Z,98006.19
2022-09-11T07:29:20.748Z,98009.69
2022-09-11T07:31:47.789Z,98011.53
2022-09-11T07:34:15.641Z,98017.69
2022-09-11T07:36:43.929Z,98015.84
2022-09-11T07:39:10.639Z,98016.00
2022-09-11T07:41:47.191Z,98022.19
2022-09-11T07:46:33.329Z,97981.56
2022-09-11T07:49:04.545Z,98013.34
2022-09-11T07:51:31.395Z,98014.19
2022-09-11T07:54:02.452Z,98016.84
2022-09-11T07:56:31.796Z,98026.66
2022-09-11T07:59:01.955Z,98030.16
2022-09-11T08:01:31.145Z,98029.31
2022-09-11T08:04:00.888Z,98030.16
2022-09-11T08:06:30.303Z,98031.16
2022-09-11T08:09:02.796Z,98018.28
2022-09-11T08:11:36.209Z,98031.16
2022-09-11T08:14:02.872Z,98030.31
2022-09-11T08:16:29.956Z,98026.66
2022-09-11T08:19:00.007Z,98026.66
2022-09-11T08:21:26.845Z,98023.31
2022-09-11T08:23:54.241Z,98009.56
2022-09-11T08:26:23.541Z,98032.84
2022-09-11T08:28:53.858Z,98034.66
2022-09-11T08:31:23.039Z,98034.66
2022-09-11T08:33:49.971Z,98035.50
2022-09-11T08:36:16.763Z,98038.16
2022-09-11T08:38:47.128Z,98042.63
2022-09-11T08:41:16.471Z,98038.16
2022-09-11T08:43:51.277Z,98038.00
2022-09-11T08:46:23.105Z,98038.81
2022-09-11T08:49:08.149Z,98044.16
2022-09-11T08:51:36.301Z,98038.69
2022-09-11T08:54:07.265Z,98041.34
2022-09-11T08:56:38.708Z,98046.53
2022-09-11T08:59:38.888Z,98043.72
2022-09-11T09:02:27.919Z,98036.59
2022-09-11T09:05:05.351Z,98040.78
2022-09-11T09:08:01.567Z,98044.94
2022-09-11T09:10:43.777Z,98045.63
2022-09-11T09:13:25.618Z,98040.97
2022-09-11T09:16:04.635Z,98044.34
2022-09-11T09:18:36.395Z,98040.69
2022-09-11T09:21:10.194Z,98041.34
2022-09-11T09:24:01.327Z,98043.88
2022-09-11T09:26:40.404Z,98050.84
2022-09-11T09:29:17.809Z,98048.06
2022-09-11T09:31:47.741Z,98046.22
2022-09-11T09:34:18.594Z,98025.97
2022-09-11T09:36:56.084Z,98047.72
2022-09-11T09:39:24.331Z,98052.06
2022-09-11T09:42:18.348Z,98053.06
2022-09-11T09:45:02.359Z,98053.75
2022-09-11T09:47:29.688Z,98052.75
2022-09-11T09:49:58.342Z,98048.25
2022-09-11T09:52:35.940Z,98039.91
2022-09-11T09:55:05.767Z,98046.41
2022-09-11T09:57:36.445Z,98040.25
2022-09-11T10:00:06.932Z,98044.59
2022-09-11T10:02:57.964Z,98049.94
2022-09-11T10:05:24.638Z,98054.41
2022-09-11T10:08:03.764Z,98049.94
2022-09-11T10:10:34.726Z,98047.28
2022-09-11T10:13:19.146Z,98023.03
2022-09-11T10:15:49.657Z,98054.28
2022-09-11T10:18:29.469Z,98059.44
2022-09-11T10:21:11.564Z,98062.28
2022-09-11T10:23:50.257Z,98060.44
2022-09-11T10:26:34.282Z,98059.44
2022-09-11T10:29:07.947Z,98059.44
2022-09-11T10:31:39.242Z,98064.78
2022-09-11T10:34:07.336Z,98065.75
2022-09-11T10:36:35.112Z,98065.75
2022-09-11T10:39:02.528Z,98055.94
2022-09-11T10:41:34.279Z,98062.41
2022-09-11T10:44:02.420Z,98053.59
2022-09-11T10:46:38.513Z,98042.91
2022-09-11T10:49:05.325Z,98051.75
2022-09-11T10:51:47.318Z,98053.41
2022-09-11T10:54:39.775Z,98057.94
2022-09-11T10:57:34.860Z,98043.09
2022-09-11T11:00:09.545Z,98056.41
2022-09-11T11:02:41.620Z,98052.91
2022-09-11T11:05:19.880Z,98051.09
2022-09-11T11:07:50.205Z,98055.44
2022-09-11T11:10:19.741Z,98063.41
2022-09-11T11:13:29.957Z,98059.75
2022-09-11T11:16:06.800Z,98058.09
2022-09-11T11:19:04.396Z,98062.56
2022-09-11T11:21:46.156Z,98066.75
2022-09-11T11:24:32.354Z,98064.78
2022-09-11T11:27:20.313Z,98068.94
2022-09-11T11:30:13.057Z,98073.13
2022-09-11T11:32:48.820Z,98074.81
2022-09-11T11:35:30.223Z,98074.66
2022-09-11T11:38:13.059Z,98073.66
2022-09-11T11:40:49.620Z,98077.19
2022-09-11T11:43:21.160Z,98078.00
2022-09-11T11:46:12.388Z,98076.16
2022-09-11T11:49:01.739Z,98073.50
2022-09-11T11:51:35.426Z,98065.81
2022-09-11T11:54:10.976Z,98077.03
2022-09-11T11:56:48.014Z,98079.69
2022-09-11T11:59:17.244Z,98078.81
2022-09-11T12:02:02.261Z,98080.66
2022-09-11T12:04:53.781Z,98073.66
2022-09-11T12:07:33.169Z,98079.84
2022-09-11T12:10:05.648Z,98076.31
2022-09-11T12:12:36.681Z,98071.31
2022-09-11T12:15:09.756Z,98067.50
2022-09-11T12:17:39.803Z,98067.50
2022-09-11T12:20:09.260Z,98064.69
2022-09-11T12:22:48.638Z,98055.34
2022-09-11T12:25:20.981Z,98066.53
2022-09-11T12:27:48.778Z,98058.53
2022-09-11T12:30:18.308Z,98054.00
2022-09-11T12:32:57.021Z,98060.16
2022-09-11T12:35:26.661Z,98058.34
2022-09-11T12:38:13.421Z,98062.84
2022-09-11T12:40:56.460Z,98059.13
2022-09-11T12:43:35.508Z,98051.19
2022-09-11T12:46:05.142Z,98055.69
2022-09-11T12:48:38.795Z,98057.38
2022-09-11T12:51:17.753Z,98056.34
2022-09-11T12:53:50.435Z,98049.38
2022-09-11T12:56:21.696Z,98049.38
2022-09-11T12:59:07.568Z,98042.19
2022-09-11T13:01:41.195Z,98035.19
2022-09-11T13:04:10.591Z,98037.84
2022-09-11T13:06:48.585Z,98031.47
2022-09-11T13:09:28.657Z,98038.72
2022-09-11T13:11:57.316Z,98042.19
2022-09-11T13:14:32.136Z,98043.19
2022-09-11T13:17:04.881Z,98054.84
2022-09-11T13:19:36.296Z,98047.00
2022-09-11T13:22:31.028Z,98042.81
2022-09-11T13:25:18.716Z,98039.47
2022-09-11T13:27:57.283Z,98047.63
2022-09-11T13:30:26.664Z,98040.78
2022-09-11T13:33:17.746Z,98030.94
2022-09-11T13:35:45.809Z,98044.28
2022-09-11T13:38:20.188Z,98037.13
2022-09-11T13:40:55.741Z,98037.13
2022-09-11T13:43:29.723Z,98029.59
2022-09-11T13:46:14.884Z,98036.28
2022-09-11T13:48:47.386Z,98038.81
2022-09-11T13:51:16.504Z,98024.09
2022-09-11T13:53:45.781Z,98030.81
2022-09-11T13:56:51.405Z,98032.63
2022-09-11T13:59:27.125Z,98029.13
2022-09-11T14:01:56.908Z,98034.31
2022-09-11T14:04:23.479Z,98020.97
2022-09-11T14:06:50.213Z,98025.31
2022-09-11T14:09:21.716Z,98028.81
2022-09-11T14:11:49.517Z,98024.34
2022-09-11T14:16:36.568Z,98020.69
2022-09-11T14:19:16.924Z,98025.84
2022-09-11T14:21:46.891Z,98018.69
2022-09-11T14:24:33.716Z,98010.84
2022-09-11T14:27:02.281Z,98019.53
2022-09-11T14:29:33.234Z,98019.53
2022-09-11T14:32:39.044Z,98018.69
2022-09-11T14:35:09.149Z,98017.00
2022-09-11T14:37:41.588Z,98016.00
2022-09-11T14:40:16.051Z,98023.34
2022-09-11T14:42:43.666Z,98020.69
2022-09-11T14:45:24.608Z,98024.34
2022-09-11T14:47:52.623Z,98025.31
2022-09-11T14:50:19.512Z,98034.31
2022-09-11T14:52:46.753Z,98054.94
2022-09-11T14:55:14.617Z,98078.91
2022-09-11T14:57:42.337Z,98066.63
2022-09-11T15:00:10.815Z,98063.25
2022-09-11T15:02:39.212Z,98060.59
2022-09-11T15:05:07.705Z,98058.09
2022-09-11T15:07:36.360Z,98063.41
2022-09-11T15:10:02.917Z,98068.88
2022-09-11T15:12:30.185Z,98070.88
2022-09-11T15:14:59.342Z,98060.22
2022-09-11T15:17:30.518Z,98048.88
2022-09-11T15:19:59.919Z,98049.88
2022-09-11T15:22:26.663Z,98056.19
2022-09-11T15:24:54.006Z,98052.00
2022-09-11T15:27:20.513Z,98039.53
2022-09-11T15:29:47.057Z,98044.16
2022-09-11T15:32:14.422Z,98053.16
2022-09-11T15:34:42.377Z,98026.19
2022-09-11T15:37:09.504Z,98051.09
2022-09-11T15:39:36.189Z,98060.44
2022-09-11T15:42:03.127Z,98065.78
2022-09-11T15:44:29.959Z,98069.28
2022-09-11T15:46:58.907Z,98078.28
2022-09-11T15:49:28.374Z,98082.78
2022-09-11T15:51:55.648Z,98077.06
2022-09-11T15:54:25.509Z,98090.06
2022-09-11T15:56:52.859Z,98083.94
2022-09-11T15:59:19.455Z,98085.72
2022-09-11T16:01:46.328Z,98083.22
2022-09-11T16:04:15.616Z,98086.72
2022-09-11T16:06:45.540Z,98084.22
2022-09-11T16:09:16.087Z,98062.25
2022-09-11T16:11:43.924Z,98081.72
2022-09-11T16:14:23.274Z,98079.06
2022-09-11T16:16:50.973Z,98077.38
2022-09-11T16:19:20.452Z,98063.50
2022-09-11T16:21:49.220Z,98074.84
2022-09-11T16:24:16.279Z,98073.16
2022-09-11T16:26:44.439Z,98083.13
2022-09-11T16:29:14.857Z,98077.78
2022-09-11T16:31:42.433Z,98076.28
2022-09-11T16:34:09.703Z,98080.78
2022-09-11T16:36:38.877Z,98091.44
2022-09-11T16:39:06.947Z,98087.53
2022-09-11T16:41:33.581Z,98101.22
2022-09-11T16:44:00.301Z,98106.56
2022-09-11T16:46:27.475Z,98107.53
2022-09-11T16:48:59.851Z,98110.22
2022-09-11T16:51:28.397Z,98120.84
2022-09-11T16:53:55.385Z,98105.47
2022-09-11T16:56:24.612Z,98106.88
2022-09-11T16:58:51.444Z,98108.56
2022-09-11T17:01:32.491Z,98114.00
2022-09-11T17:03:59.144Z,98117.66
2022-09-11T17:06:29.869Z,98123.84
2022-09-11T17:08:59.688Z,98119.50
2022-09-11T17:11:26.709Z,98128.31
2022-09-11T17:13:53.709Z,98124.00
2022-09-11T17:16:24.071Z,98132.00
2022-09-11T17:18:53.925Z,98130.31
2022-09-11T17:21:24.992Z,98139.97
2022-09-11T17:23:54.317Z,98137.44
2022-09-11T17:26:22.249Z,98144.59
2022-09-11T17:28:50.292Z,98156.09
2022-09-11T17:31:19.423Z,98157.94
2022-09-11T17:33:50.330Z,98154.44
2022-09-11T17:38:38.128Z,98158.22
2022-09-11T17:41:07.318Z,98157.38
2022-09-11T17:43:36.104Z,98160.88
2022-09-11T17:46:08.789Z,98169.88
2022-09-11T17:48:36.174Z,98165.53
2022-09-11T17:51:10.723Z,98116.69
2022-09-11T17:53:39.891Z,98177.00
2022-09-11T17:56:08.461Z,98185.84
2022-09-11T17:58:36.632Z,98191.19
2022-09-11T18:01:03.849Z,98183.31
2022-09-11T18:03:31.849Z,98186.84
2022-09-11T18:05:59.526Z,98176.53
2022-09-11T18:08:27.034Z,98193.97
2022-09-11T18:10:59.256Z,98192.31
2022-09-11T18:13:31.873Z,98193.16
2022-09-11T18:15:58.482Z,98196.78
2022-09-11T18:18:25.158Z,98216.41
2022-09-11T18:20:55.135Z,98190.22
2022-09-11T18:23:26.144Z,98184.22
2022-09-11T18:25:55.811Z,98196.09
2022-09-11T18:28:22.407Z,98206.75
2022-09-11T18:30:50.064Z,98207.59
2022-09-11T18:33:16.818Z,98206.75
2022-09-11T18:35:44.271Z,98214.06
2022-09-11T18:38:10.910Z,98209.56
2022-09-11T18:40:37.522Z,98220.22
2022-09-11T18:43:06.288Z,98212.22
2022-09-11T18:45:35.573Z,98212.38
2022-09-11T18:48:03.541Z,98219.38
2022-09-11T18:50:31.282Z,98220.22
2022-09-11T18:52:57.794Z,98218.53
2022-09-11T18:55:28.799Z,98219.50
2022-09-11T18:57:56.123Z,98219.50
2022-09-11T19:00:22.708Z,98222.19
2022-09-11T19:02:50.184Z,98228.50
2022-09-11T19:05:17.322Z,98225.00
2022-09-11T19:10:08.150Z,98227.66
2022-09-11T19:12:34.772Z,98235.81
2022-09-11T19:15:01.337Z,98234.13
2022-09-11T19:17:27.941Z,98246.44
2022-09-11T19:19:54.529Z,98248.28
2022-09-11T19:22:22.825Z,98224.50
2022-09-11T19:24:49.708Z,98242.25
2022-09-11T19:27:17.411Z,98252.75
2022-09-11T19:29:45.026Z,98252.75
2022-09-11T19:32:13.046Z,98247.44
2022-09-11T19:34:46.426Z,98244.78
2022-09-11T19:37:14.438Z,98264.25
2022-09-11T19:39:41.149Z,98254.59
2022-09-11T19:42:09.260Z,98246.59
2022-09-11T19:44:36.301Z,98250.94
2022-09-11T19:47:03.490Z,98228.28
2022-09-11T19:49:30.042Z,98255.41
2022-09-11T19:51:57.133Z,98256.28
2022-09-11T19:54:25.654Z,98268.72
2022-09-11T19:56:52.470Z,98253.50
2022-09-11T19:59:19.677Z,98259.91
2022-09-11T20:01:46.677Z,98256.41
2022-09-11T20:04:15.591Z,98260.75
2022-09-11T20:11:56.433Z,98258.09
2022-09-11T20:14:23.114Z,98255.56
2022-09-11T20:16:49.666Z,98259.91
2022-09-11T20:19:17.379Z,98260.75
2022-09-11T20:21:44.700Z,98258.25
2022-09-11T20:24:11.553Z,98271.56
2022-09-11T20:26:38.149Z,98271.72
2022-09-11T20:29:07.891Z,98268.19
2022-09-11T20:31:46.474Z,98269.16
2022-09-11T20:34:15.388Z,98267.38
2022-09-11T20:36:42.260Z,98274.50
2022-09-11T20:39:15.000Z,98272.84
2022-09-11T20:41:41.866Z,98267.50
2022-09-11T20:44:08.697Z,98273.81
2022-09-11T20:46:35.621Z,98277.47
2022-09-11T20:49:03.136Z,98270.22
2022-09-11T20:51:29.947Z,98286.44
2022-09-11T20:53:57.089Z,98280.13
2022-09-11T20:56:24.154Z,98281.09
2022-09-11T21:01:21.969Z,98280.41
2022-09-11T21:06:10.425Z,98282.09
2022-09-11T21:08:37.279Z,98266.16
2022-09-11T21:11:04.623Z,98278.72
2022-09-11T21:13:35.290Z,98277.91
2022-09-11T21:16:05.306Z,98277.06
2022-09-11T21:18:31.994Z,98270.06
2022-09-11T21:20:58.637Z,98273.53
2022-09-11T21:23:25.248Z,98277.06
2022-09-11T21:25:52.776Z,98278.03
2022-09-11T21:28:20.210Z,98282.50
2022-09-11T21:30:46.772Z,98280.72
2022-09-11T21:33:13.445Z,98267.72
2022-09-11T21:35:40.009Z,98283.66
2022-09-11T21:38:06.674Z,98288.97
2022-09-11T21:40:33.656Z,98290.66
2022-09-11T21:43:00.424Z,98294.28
2022-09-11T21:45:27.017Z,98260.84
2022-09-11T21:47:53.632Z,98263.50
2022-09-11T21:50:20.660Z,98289.81
2022-09-11T21:52:47.316Z,98286.19
2022-09-11T21:55:13.963Z,98293.31
2022-09-11T21:57:40.572Z,98288.00
2022-09-11T22:00:12.565Z,98279.19
2022-09-11T22:02:39.071Z,98292.50
2022-09-11T22:05:06.135Z,98288.00
2022-09-11T22:07:34.321Z,98286.47
2022-09-11T22:10:02.018Z,98292.59
2022-09-11T22:12:28.869Z,98289.13
2022-09-11T22:14:55.507Z,98292.59
2022-09-11T22:17:22.799Z,98285.63
2022-09-11T22:19:49.419Z,98283.81
2022-09-11T22:22:16.379Z,98281.56
2022-09-11T22:24:42.995Z,98293.63
2022-09-11T22:27:10.929Z,98293.63
2022-09-11T22:29:37.570Z,98299.78
2022-09-11T22:32:05.023Z,98284.78
2022-09-11T22:34:36.115Z,98289.28
2022-09-11T22:37:06.172Z,98299.91
2022-09-11T22:39:32.844Z,98303.41
2022-09-11T22:41:59.728Z,98289.53
2022-09-11T22:44:27.104Z,98295.44
2022-09-11T22:46:53.733Z,98292.75
2022-09-11T22:49:20.563Z,98299.91
2022-09-11T22:51:47.560Z,98293.19
2022-09-11T22:54:14.692Z,98291.94
2022-09-11T22:56:41.464Z,98290.25
2022-09-11T22:59:08.810Z,98301.72
2022-09-11T23:01:36.495Z,98295.56
2022-09-11T23:04:03.453Z,98302.59
2022-09-11T23:06:48.428Z,98296.41
2022-09-11T23:09:16.945Z,98293.75
2022-09-11T23:11:47.948Z,98295.72
2022-09-11T23:14:15.011Z,98303.56
2022-09-11T23:16:41.912Z,98301.72
2022-09-11T23:19:08.633Z,98302.75
2022-09-11T23:21:36.007Z,98294.75
2022-09-11T23:24:06.150Z,98295.56
2022-09-11T23:26:33.255Z,98298.25
2022-09-11T23:29:00.080Z,98282.28
2022-09-11T23:31:29.596Z,98283.28
2022-09-11T23:33:59.144Z,98303.56
2022-09-11T23:36:26.942Z,98292.09
2022-09-11T23:38:53.849Z,98281.47
2022-09-11T23:41:21.351Z,98303.56
2022-09-11T23:43:48.468Z,98285.66
2022-09-11T23:46:16.516Z,98294.75
2022-09-11T23:48:43.705Z,98299.06
2022-09-11T23:51:11.218Z,98301.72
2022-09-11T23:53:39.285Z,98295.56
2022-09-11T23:56:07.727Z,98280.63
2022-09-11T23:58:39.216Z,98297.41
